Station: Warruwi  

  Atmospheric Gas Attenuation - ITU Rec 676-11   ----------------- dB/100km -----------------
Date Time Temp RH % AH g/m3 Dew Point Wind Direction Speed kph Gust kph Barometer mB Rainfall Since 9am 24GHz 47GHz 76GHz 122GHz 134GHz 241GHz
08/05 12:10 30.7 52 16.38 19.7 17 24 1011.3 0 34.9 32.9 60.5 159.9 172.1 598.1
08/05 12:00 30.7 50 15.75 19.1 22 35 1011.4 0 33.6 31.9 58.0 153.2 163.8 569.2
08/05 11:50 30.8 50 15.83 19.4 15 24 1011.4 0 33.8 32.0 58.2 153.8 164.6 572.1
08/05 11:40 30.6 51 15.98 19.6 19 26 1011.5 0 34.1 32.3 59.0 155.8 167.1 580.5
08/05 11:30 30.2 52 15.94 19.3 20 32 1011.6 0 34.0 32.4 59.1 156.2 167.4 581.6
08/05 11:20 30 50 15.17 18.7 22 28 1011.7 0 32.5 31.2 56.2 148.4 157.7 547.9
08/05 11:10 30.1 51 15.55 19.1 13 20 1011.8 0 33.2 31.8 57.6 152.3 162.5 564.5
08/05 11:00 30 52 15.77 19.1 19 28 1011.9 0 33.7 32.2 58.6 154.8 165.6 575.4
08/05 10:50 29.8 51 15.3 18.8 17 20 1012.1 0 32.7 31.5 56.9 150.2 159.9 555.4
08/05 10:40 29.5 54 15.94 19.2 22 26 1012.2 0 34.1 32.7 59.7 157.7 169.0 587.1
08/05 10:30 29.4 53 15.56 18.8 17 26 1012.1 0 33.3 32.1 58.2 153.8 164.1 570.2
08/05 10:20 29 52 14.94 18.4 22 30 1012.2 0 32.0 31.2 56.0 147.9 156.8 544.6
08/05 10:10 28.8 54 15.34 18.8 17 20 1012.2 0 32.9 31.9 57.8 152.6 162.5 564.4
08/05 10:00 28.6 53 14.9 18.1 20 30 1012.2 0 32.0 31.3 56.1 148.2 157.1 545.5
08/05 09:50 28.7 54 15.26 18.7 15 19 1012.2 0 32.7 31.8 57.5 151.9 161.7 561.4
08/05 09:40 28.3 55 15.21 18.4 17 20 1012.2 0 32.7 31.9 57.6 152.1 161.8 561.9
08/05 09:30 28.3 55 15.21 18.4 19 32 1012.3 0 32.7 31.9 57.6 152.1 161.8 562.0
08/05 09:20 28 55 14.96 18.1 17 24 1012.3 0 32.2 31.6 56.8 150.0 159.1 552.5
08/05 09:10 28.1 56 15.31 18.7 15 19 1012.3 0 32.9 32.2 58.2 153.6 163.6 568.1
08/05 09:00 27.4 57 15 18.1 17 32 1012.3 0 32.3 31.9 57.4 151.6 160.9 558.6
08/05 08:50 26.9 56 14.33 17.6 20 28 1012.2 0 30.9 31.0 55.0 145.3 153.0 530.9
08/05 08:40 26.8 59 15.02 18.1 20 24 1012.1 0 32.4 32.1 57.9 153.0 162.4 563.8
08/05 08:30 26.5 60 15.02 18.1 17 24 1012.1 0 32.4 32.3 58.1 153.5 163.0 566.0
08/05 08:20 26.1 63 15.42 18.5 17 19 1012.2 0 33.3 33.1 60.1 158.8 169.4 588.1
08/05 08:10 25.9 63 15.25 18.5 17 19 1012.2 0 32.9 32.9 59.6 157.3 167.5 581.4
08/05 08:00 25.6 65 15.47 18.5 15 22 1012.2 0 33.4 33.4 60.7 160.4 171.2 594.3
08/05 07:50 25.3 67 15.69 18.7 11 13 1012.2 0 33.9 33.9 61.9 163.5 175.0 607.4
08/05 07:40 25.1 69 15.97 19 13 15 1012.1 0 34.5 34.4 63.3 167.2 179.4 622.8
08/05 07:30 24.6 71 15.98 19 11 17 1011.9 0 34.6 34.6 63.7 168.3 180.7 627.2
08/05 07:20 24.4 71 15.8 18.8 11 15 1011.8 0 34.2 34.4 63.1 166.7 178.6 619.8
08/05 07:10 24.2 71 15.62 18.6 13 17 1011.8 0 33.9 34.2 62.5 165.0 176.5 612.5
08/05 07:00 24.1 72 15.75 18.7 11 19 1011.7 0 34.2 34.4 63.1 166.7 178.5 619.7
08/05 06:50 24.1 71 15.53 18.5 13 17 1011.8 0 33.7 34.0 62.1 164.2 175.4 608.8
08/05 06:40 24 72 15.66 18.8 13 17 1011.7 0 34.0 34.3 62.8 165.9 177.5 616.0
08/05 06:30 24 72 15.66 18.6 11 19 1011.7 0 34.0 34.3 62.8 165.9 177.5 616.0
08/05 06:20 24.1 72 15.75 18.7 11 15 1011.6 0 34.2 34.4 63.1 166.7 178.5 619.7
08/05 06:10 24.1 72 15.75 18.7 13 17 1011.6 0 34.2 34.4 63.1 166.7 178.5 619.7
08/05 06:00 24.3 71 15.71 18.7 11 17 1011.5 0 34.1 34.3 62.8 165.8 177.5 616.0
08/05 05:50 24.3 71 15.71 18.7 7 7 1011.6 0 34.1 34.3 62.8 165.8 177.5 616.1
08/05 05:40 24.1 72 15.75 18.7 11 15 1011.5 0 34.2 34.4 63.1 166.7 178.5 619.6
08/05 05:30 24.2 72 15.84 18.8 7 13 1011.4 0 34.3 34.5 63.4 167.5 179.6 623.3
08/05 05:20 24.4 71 15.8 18.8 9 11 1011.4 0 34.2 34.4 63.1 166.6 178.5 619.6
08/05 05:10 24.4 69 15.36 18.5 9 11 1011.4 0 33.3 33.6 61.1 161.5 172.3 597.9
08/05 05:00 24.6 69 15.53 18.5 13 24 1011.4 0 33.6 33.8 61.7 163.1 174.2 604.7
08/05 04:50 24.7 69 15.62 18.6 17 20 1011.4 0 33.8 33.9 62.0 163.9 175.3 608.3
08/05 04:40 24.7 69 15.62 18.6 15 19 1011.2 0 33.8 33.9 62.0 163.9 175.2 608.2
08/05 04:30 24.8 69 15.71 18.7 13 22 1011.3 0 34.0 34.1 62.3 164.7 176.3 611.9
08/05 04:20 24.8 68 15.48 18.5 19 24 1011.2 0 33.5 33.6 61.3 162.0 173.0 600.6
08/05 04:10 24.9 66 15.11 18.3 17 22 1011.1 0 32.7 33.0 59.7 157.6 167.6 581.7
08/05 04:00 24.9 68 15.57 18.6 15 20 1011.2 0 33.7 33.8 61.6 162.9 174.1 604.2
08/05 03:50 24.9 67 15.34 18.5 15 22 1011.2 0 33.2 33.4 60.7 160.2 170.8 592.9
08/05 03:40 24.9 69 15.79 18.8 13 19 1011.3 0 34.2 34.2 62.6 165.4 177.2 615.1
08/05 03:30 25 68 15.65 18.7 15 24 1011.3 0 33.9 33.9 61.9 163.6 175.0 607.4
08/05 03:20 25 67 15.42 18.6 9 9 1011.3 0 33.4 33.5 60.9 161.0 171.7 596.1
08/05 03:10 24.8 69 15.71 18.9 11 17 1011.4 0 34.0 34.1 62.3 164.7 176.3 612.0
08/05 03:00 24.9 70 16.02 19.1 11 17 1011.5 0 34.7 34.6 63.6 168.1 180.5 626.6
08/05 02:50 25 69 15.88 19.1 13 17 1011.6 0 34.4 34.3 62.9 166.3 178.3 618.9
08/05 02:40 25 69 15.88 18.9 11 15 1011.6 0 34.4 34.3 62.9 166.3 178.3 618.9
08/05 02:30 25 69 15.88 19.1 13 20 1011.6 0 34.4 34.3 62.9 166.3 178.3 618.9
08/05 02:20 25 70 16.11 19.3 11 19 1011.8 0 34.8 34.7 63.9 169.0 181.6 630.4
08/05 02:10 25.1 70 16.2 19.2 9 13 1011.7 0 35.0 34.8 64.2 169.8 182.6 634.0
08/05 02:00 25.1 70 16.2 19.2 11 19 1011.9 0 35.0 34.8 64.3 169.8 182.6 634.1
08/05 01:50 25.2 70 16.3 19.3 15 19 1012 0 35.2 35.0 64.6 170.8 183.8 638.3
08/05 01:40 25.4 69 16.24 19.3 15 22 1012 0 35.1 34.8 64.2 169.6 182.5 633.7
08/05 01:30 25.3 70 16.39 19.4 11 20 1012 0 35.4 35.1 64.9 171.6 184.9 642.0
08/05 01:20 25.4 70 16.48 19.5 13 15 1012 0 35.6 35.2 65.2 172.4 185.9 645.6
08/05 01:10 25.5 69 16.34 19.4 11 13 1012.1 0 35.3 34.9 64.5 170.6 183.7 637.9
08/05 01:00 25.5 70 16.57 19.6 9 17 1012.1 0 35.8 35.3 65.6 173.3 187.0 649.3
08/05 00:50 25.6 70 16.67 19.7 9 13 1012.2 0 36.0 35.5 65.9 174.2 188.2 653.6
08/05 00:40 25.9 68 16.46 19.7 7 11 1012.3 0 35.5 35.0 64.7 171.1 184.5 640.6
08/05 00:30 26 69 16.8 19.9 13 24 1012.3 0 36.2 35.5 66.2 174.9 189.1 656.7
08/05 00:20 26.1 68 16.65 19.7 9 15 1012.4 0 35.9 35.2 65.4 172.9 186.7 648.4
08/05 00:10 26.2 66 16.25 19.5 17 19 1012.5 0 35.0 34.5 63.6 168.1 180.8 627.8
08/05 00:00 26.3 67 16.59 19.7 15 26 1012.5 0 35.7 35.0 65.0 171.8 185.4 643.8
07/05 23:50 26.3 66 16.34 19.6 19 28 1012.5 0 35.2 34.6 63.9 168.9 181.8 631.5
07/05 23:40 26.4 66 16.43 19.5 11 13 1012.5 0 35.4 34.7 64.2 169.7 182.9 635.1
07/05 23:30 26.7 66 16.71 19.8 15 22 1012.5 0 35.9 35.1 65.2 172.3 186.1 646.4
07/05 23:20 26.8 66 16.8 19.9 17 20 1012.5 0 36.1 35.2 65.5 173.1 187.1 650.0
07/05 23:10 26.7 66 16.71 20 17 20 1012.5 0 35.9 35.1 65.2 172.3 186.1 646.4
07/05 23:00 26.7 67 16.96 20.1 11 20 1012.6 0 36.5 35.5 66.3 175.2 189.7 658.8
07/05 22:50 26.9 66 16.89 20 13 19 1012.6 0 36.3 35.3 65.8 173.9 188.2 653.7
07/05 22:40 27.2 64 16.66 20 13 20 1012.7 0 35.8 34.8 64.6 170.6 184.2 639.9
07/05 22:30 27.5 64 16.93 20.1 15 30 1012.7 0 36.3 35.1 65.5 173.1 187.3 650.6
07/05 22:20 27.7 63 16.85 20.2 13 17 1012.8 0 36.2 34.9 65.0 171.7 185.7 645.1
07/05 22:10 27.8 63 16.95 20.3 13 19 1012.8 0 36.4 35.1 65.3 172.6 186.9 649.1
07/05 22:00 27.8 66 17.75 20.9 11 19 1012.8 0 38.0 36.5 68.8 181.9 198.2 688.7
07/05 21:50 27.7 67 17.92 21 13 19 1012.8 0 38.4 36.8 69.6 184.1 200.9 698.1
07/05 21:40 27.7 67 17.92 21 9 11 1012.8 0 38.4 36.8 69.6 184.1 200.9 698.1
07/05 21:30 27.7 69 18.46 21.5 7 13 1012.7 0 39.5 37.8 72.0 190.5 208.8 725.4
07/05 21:20 27.7 67 17.92 21.2 9 11 1012.6 0 38.4 36.8 69.6 184.1 200.9 698.0
07/05 21:10 27.7 69 18.46 21.5 6 7 1012.6 0 39.5 37.8 72.0 190.5 208.8 725.4
07/05 21:00 27.7 69 18.46 21.5 6 9 1012.6 0 39.5 37.8 72.0 190.5 208.8 725.4
07/05 20:50 27.6 69 18.36 21.4 6 7 1012.6 0 39.3 37.6 71.7 189.5 207.6 721.2
07/05 20:40 27.5 70 18.52 21.5 6 6 1012.5 0 39.7 38.0 72.5 191.7 210.2 730.3
07/05 20:30 27.6 69 18.36 21.4 6 9 1012.4 0 39.3 37.6 71.6 189.5 207.5 721.1
07/05 20:20 27.6 67 17.83 21.1 6 7 1012.3 0 38.2 36.7 69.3 183.2 199.8 694.3
07/05 20:10 27.7 67 17.92 21.2 6 7 1012.2 0 38.4 36.8 69.6 184.0 200.8 697.8
07/05 20:00 27.7 69 18.46 21.5 6 9 1012 0 39.5 37.7 72.0 190.4 208.7 725.1
07/05 19:50 27.8 68 18.29 21.5 4 6 1012 0 39.2 37.4 71.1 188.1 205.9 715.5
07/05 19:40 28 67 18.22 21.3 6 7 1011.8 0 39.0 37.2 70.6 186.8 204.3 710.0

Last Refresh: 08-May-2026 12:10:21

Bureau of Meteorology